Аэропорт: Челябинск. Челябинск

ICAO: USCC

METAR:
2019-07-23 18:00:00
USCC 231800Z 30004MPS 9999 SCT026CB 18/14 Q1008 R27/000060 NOSIG RMK QFE736
METAR:
2019-07-23 17:00:00
TAF USCC 231700Z 2318/2418 30003G10MPS 3100 BR SCT011 BKN020CB TEMPO 2318/2406 -TSRA FM240600 35003G09MPS 9999 BKN015CB TEMPO 2406/2418 35004G13MPS 3100 -SHRA SCT011CB